Time;durP1;ratioP1;P1;durP2;ratioP2;P2;SDS_P1;SDS_P2;PMS_P1;PMS_P2;Temp;Humidity;BMP_temperature;BMP_pressure;BME280_temperature;BME280_humidity;BME280_pressure;Samples;Min_cycle;Max_cycle;Signal;HPM_P1;HPM_P2
2021/09/23 00:02:24;;;;;;;16.38;10.10;;;8.60;99.90;;;;;;4973307;28;20489;-72
2021/09/23 00:04:50;;;;;;;14.77;10.25;;;8.70;99.90;;;;;;4972692;28;20018;-73
2021/09/23 00:07:16;;;;;;;17.35;10.63;;;8.60;99.90;;;;;;4973134;28;20081;-73
2021/09/23 00:09:41;;;;;;;17.25;10.50;;;8.50;99.90;;;;;;4971513;28;20051;-73
2021/09/23 00:12:07;;;;;;;13.32;10.57;;;8.60;99.90;;;;;;4973041;28;20512;-73
2021/09/23 00:14:33;;;;;;;17.10;11.95;;;8.70;99.90;;;;;;4972205;28;20073;-72
2021/09/23 00:16:59;;;;;;;15.05;10.25;;;8.60;99.90;;;;;;4973081;28;20342;-73
2021/09/23 00:19:25;;;;;;;15.35;10.75;;;8.60;99.90;;;;;;4973147;28;20054;-73
2021/09/23 00:21:51;;;;;;;18.38;10.48;;;8.60;99.90;;;;;;4973082;28;20429;-72
2021/09/23 00:24:17;;;;;;;16.17;11.60;;;8.60;99.90;;;;;;4972163;28;20030;-73
2021/09/23 00:26:42;;;;;;;16.15;11.50;;;8.50;99.90;;;;;;4972580;28;20066;-73
2021/09/23 00:29:08;;;;;;;15.23;10.90;;;8.50;99.90;;;;;;4972865;28;20110;-72
2021/09/23 00:31:34;;;;;;;15.93;10.07;;;8.40;99.90;;;;;;4972932;28;20034;-73
2021/09/23 00:34:00;;;;;;;13.80;10.27;;;8.40;99.90;;;;;;4972428;28;20030;-73
2021/09/23 00:36:26;;;;;;;15.45;10.38;;;8.40;99.90;;;;;;4971952;28;20042;-73
2021/09/23 00:38:51;;;;;;;13.38;10.30;;;8.40;99.90;;;;;;4972666;28;20027;-73
2021/09/23 00:41:17;;;;;;;15.85;11.20;;;8.40;99.90;;;;;;4972724;28;20027;-72
2021/09/23 00:43:43;;;;;;;14.65;10.80;;;8.30;99.90;;;;;;4972831;28;20090;-73
2021/09/23 00:46:08;;;;;;;16.08;11.20;;;8.30;99.90;;;;;;4972654;28;20027;-72
2021/09/23 00:48:35;;;;;;;15.25;11.55;;;8.20;99.90;;;;;;4972753;28;20485;-72
2021/09/23 00:51:01;;;;;;;16.90;11.52;;;8.30;99.90;;;;;;4971483;28;20027;-73
2021/09/23 00:53:27;;;;;;;15.73;12.30;;;8.20;99.90;;;;;;4971268;28;20117;-73
2021/09/23 00:55:58;;;;;;;18.52;12.65;;;8.30;99.90;;;;;;4971826;28;20081;-72
2021/09/23 00:58:25;;;;;;;17.33;12.32;;;8.20;99.90;;;;;;4972701;28;20030;-73
2021/09/23 01:00:50;;;;;;;23.48;14.43;;;8.20;99.90;;;;;;4972754;28;20027;-72
2021/09/23 01:03:16;;;;;;;18.30;11.88;;;8.10;99.90;;;;;;4972625;28;20039;-72
2021/09/23 01:05:42;;;;;;;14.82;11.05;;;8.10;99.90;;;;;;4971957;28;20393;-72
2021/09/23 01:08:08;;;;;;;15.82;11.48;;;8.10;99.90;;;;;;4972317;28;20029;-73
2021/09/23 01:10:33;;;;;;;17.52;12.35;;;8.10;99.90;;;;;;4972420;28;20027;-73
2021/09/23 01:12:59;;;;;;;19.95;12.65;;;8.00;99.90;;;;;;4972866;28;20023;-73
2021/09/23 01:15:24;;;;;;;19.15;13.63;;;8.00;99.90;;;;;;4972295;28;20389;-72
2021/09/23 01:17:50;;;;;;;22.80;12.85;;;7.90;99.90;;;;;;4973010;28;20018;-73
2021/09/23 01:20:18;;;;;;;18.55;12.18;;;7.90;99.90;;;;;;4972879;28;20117;-72
2021/09/23 01:22:44;;;;;;;16.80;12.55;;;8.00;99.90;;;;;;4972538;28;20043;-72
2021/09/23 01:25:13;;;;;;;19.25;13.38;;;7.90;99.90;;;;;;4971505;28;20027;-73
2021/09/23 01:27:39;;;;;;;16.35;12.02;;;7.90;99.90;;;;;;4972627;28;20023;-72
2021/09/23 01:30:05;;;;;;;17.98;12.15;;;7.80;99.90;;;;;;4972321;28;20078;-72
2021/09/23 01:32:31;;;;;;;20.33;12.57;;;7.80;99.90;;;;;;4972513;28;20034;-72
2021/09/23 01:34:57;;;;;;;19.63;11.75;;;7.90;99.90;;;;;;4971710;28;20070;-72
2021/09/23 01:37:22;;;;;;;20.55;12.50;;;7.80;99.90;;;;;;4972230;28;20101;-72
2021/09/23 01:39:48;;;;;;;20.10;13.15;;;7.80;99.90;;;;;;4972450;28;20449;-73
2021/09/23 01:42:14;;;;;;;17.60;11.38;;;7.80;99.90;;;;;;4972437;28;20027;-72
2021/09/23 01:44:40;;;;;;;19.08;11.90;;;7.80;99.90;;;;;;4971936;28;20050;-72
2021/09/23 01:47:05;;;;;;;16.58;11.23;;;7.80;99.90;;;;;;4975259;28;20077;-72
2021/09/23 01:49:31;;;;;;;15.65;11.65;;;7.80;99.90;;;;;;4978024;28;20038;-72
2021/09/23 01:51:57;;;;;;;18.13;12.32;;;7.70;99.90;;;;;;4991733;28;20082;-73
2021/09/23 01:54:23;;;;;;;19.02;12.35;;;7.70;99.90;;;;;;4975120;28;20034;-73
2021/09/23 01:56:55;;;;;;;16.95;12.88;;;7.70;99.90;;;;;;4975723;28;20374;-74
2021/09/23 01:59:22;;;;;;;17.92;13.38;;;7.70;99.90;;;;;;4975667;28;20023;-72
2021/09/23 02:01:47;;;;;;;23.55;15.27;;;7.70;99.90;;;;;;4975441;28;20421;-73
2021/09/23 02:04:13;;;;;;;28.95;18.02;;;7.70;99.90;;;;;;4975496;28;20034;-72
2021/09/23 02:06:39;;;;;;;31.17;18.13;;;7.80;99.90;;;;;;4974765;28;20085;-73
2021/09/23 02:09:04;;;;;;;33.05;18.00;;;7.90;99.90;;;;;;4975125;28;20023;-72
2021/09/23 02:11:30;;;;;;;35.17;19.08;;;8.00;99.90;;;;;;4974974;28;20031;-72
2021/09/23 02:13:55;;;;;;;37.25;21.27;;;8.00;99.90;;;;;;4974153;28;20367;-72
2021/09/23 02:16:21;;;;;;;35.00;19.45;;;8.00;99.90;;;;;;4974767;28;20034;-72
2021/09/23 02:18:47;;;;;;;36.50;18.25;;;8.00;99.90;;;;;;4975206;28;20085;-72
2021/09/23 02:21:13;;;;;;;25.13;14.82;;;7.90;99.90;;;;;;4973904;28;20460;-72
2021/09/23 02:23:39;;;;;;;22.58;12.15;;;7.80;99.90;;;;;;4975058;28;20027;-72
2021/09/23 02:26:05;;;;;;;24.15;12.88;;;7.70;99.90;;;;;;4974492;28;20073;-72
2021/09/23 02:28:34;;;;;;;20.08;12.35;;;7.60;99.90;;;;;;4975205;28;20023;-72
2021/09/23 02:31:00;;;;;;;22.08;12.70;;;7.60;99.90;;;;;;4974925;28;20059;-72
2021/09/23 02:33:26;;;;;;;23.40;13.75;;;7.60;99.90;;;;;;4974744;28;20125;-72
2021/09/23 02:35:51;;;;;;;24.33;14.23;;;7.60;99.90;;;;;;4974285;28;20057;-73
2021/09/23 02:38:17;;;;;;;36.58;17.40;;;7.80;99.90;;;;;;4976150;28;20560;-73
2021/09/23 02:40:43;;;;;;;33.92;16.63;;;8.00;99.90;;;;;;4975287;28;20023;-73
2021/09/23 02:43:08;;;;;;;33.58;16.73;;;8.10;99.90;;;;;;4976478;28;20038;-73
2021/09/23 02:45:34;;;;;;;45.40;15.88;;;8.20;99.90;;;;;;4975533;28;20106;-72
2021/09/23 02:48:00;;;;;;;25.10;13.35;;;8.00;99.90;;;;;;4976388;28;20103;-72
2021/09/23 02:50:26;;;;;;;20.65;13.07;;;7.80;99.90;;;;;;4974761;28;20027;-72
2021/09/23 02:52:51;;;;;;;19.90;13.27;;;7.60;99.90;;;;;;4976914;28;20050;-73
2021/09/23 02:55:17;;;;;;;18.60;12.30;;;7.50;99.90;;;;;;4972777;28;20026;-73
2021/09/23 02:57:43;;;;;;;17.65;13.40;;;7.50;99.90;;;;;;4974093;28;20022;-72
2021/09/23 03:00:09;;;;;;;75.05;14.80;;;7.50;99.90;;;;;;4974327;28;20370;-71
2021/09/23 03:02:35;;;;;;;32.40;15.60;;;7.80;99.90;;;;;;4974130;28;20027;-72
2021/09/23 03:05:00;;;;;;;38.90;15.43;;;7.80;99.90;;;;;;4973903;28;20523;-73
2021/09/23 03:07:26;;;;;;;23.70;15.35;;;7.90;99.90;;;;;;4974447;28;20037;-72
2021/09/23 03:09:52;;;;;;;31.30;14.82;;;7.90;99.90;;;;;;4974490;28;20027;-72
2021/09/23 03:12:19;;;;;;;22.48;14.75;;;7.90;99.90;;;;;;4974164;28;20027;-72
2021/09/23 03:14:45;;;;;;;50.65;15.35;;;7.80;99.90;;;;;;4973829;28;20050;-73
2021/09/23 03:17:11;;;;;;;33.72;14.15;;;7.40;99.90;;;;;;4974238;28;20054;-73
2021/09/23 03:19:37;;;;;;;52.17;14.73;;;7.10;99.90;;;;;;4974304;28;20485;-73
2021/09/23 03:22:03;;;;;;;18.90;13.15;;;7.10;99.90;;;;;;4974597;28;20074;-72
2021/09/23 03:24:28;;;;;;;19.13;13.85;;;7.10;99.90;;;;;;4973575;28;20393;-72
2021/09/23 03:26:54;;;;;;;17.63;12.70;;;7.10;99.90;;;;;;4974158;28;20027;-71
2021/09/23 03:29:20;;;;;;;17.45;12.88;;;7.10;99.90;;;;;;4974023;28;20031;-71
2021/09/23 03:31:46;;;;;;;15.85;12.48;;;7.10;99.90;;;;;;4973716;28;20113;-71
2021/09/23 03:34:11;;;;;;;20.92;13.57;;;7.20;99.90;;;;;;4972978;28;20414;-72
2021/09/23 03:36:37;;;;;;;17.23;11.43;;;7.20;99.90;;;;;;4971946;28;20121;-71
2021/09/23 03:39:04;;;;;;;21.42;12.23;;;7.20;99.90;;;;;;4973775;28;20019;-72
2021/09/23 03:41:32;;;;;;;38.05;13.05;;;7.00;99.90;;;;;;4973855;28;20023;-72
2021/09/23 03:43:58;;;;;;;17.27;12.45;;;6.80;99.90;;;;;;4974587;28;20082;-73
2021/09/23 03:46:24;;;;;;;16.10;11.65;;;6.80;99.90;;;;;;4973351;28;20038;-72
2021/09/23 03:48:50;;;;;;;17.13;11.90;;;6.90;99.90;;;;;;4972558;28;20031;-73
2021/09/23 03:51:15;;;;;;;27.05;13.77;;;7.00;99.90;;;;;;4974774;28;20114;-72
2021/09/23 03:53:42;;;;;;;22.00;13.55;;;7.10;99.90;;;;;;4974315;28;20049;-73
2021/09/23 03:56:12;;;;;;;19.20;13.73;;;7.20;99.90;;;;;;4973308;28;20027;-72
2021/09/23 03:58:39;;;;;;;25.38;13.30;;;7.20;99.90;;;;;;4974703;28;20054;-73
2021/09/23 04:01:05;;;;;;;23.73;13.73;;;7.20;99.90;;;;;;4973511;28;20058;-72
2021/09/23 04:03:31;;;;;;;22.67;14.85;;;7.10;99.90;;;;;;4973327;28;20090;-72
2021/09/23 04:05:57;;;;;;;18.70;13.63;;;7.10;99.90;;;;;;4971487;28;20034;-72
2021/09/23 04:08:22;;;;;;;20.67;13.05;;;7.00;99.90;;;;;;4973384;28;20090;-73
2021/09/23 04:10:48;;;;;;;20.02;13.02;;;6.90;99.90;;;;;;4955820;28;20110;-73
2021/09/23 04:13:13;;;;;;;21.30;13.13;;;6.70;99.90;;;;;;4953121;29;20031;-72
2021/09/23 04:15:39;;;;;;;19.73;13.40;;;6.70;99.90;;;;;;4953253;28;20034;-73
2021/09/23 04:18:05;;;;;;;22.38;15.25;;;6.80;99.90;;;;;;4954280;28;20019;-73
2021/09/23 04:20:31;;;;;;;23.20;15.32;;;6.80;99.90;;;;;;4954141;28;20106;-75
2021/09/23 04:22:56;;;;;;;23.50;14.75;;;6.90;99.90;;;;;;4952946;28;20089;-71
2021/09/23 04:25:22;;;;;;;21.27;14.30;;;6.80;99.90;;;;;;4953026;28;20023;-71
2021/09/23 04:27:50;;;;;;;20.98;14.45;;;6.70;99.90;;;;;;4953584;28;20031;-70
2021/09/23 04:30:16;;;;;;;24.20;15.27;;;6.80;99.90;;;;;;4953725;28;20039;-72
2021/09/23 04:32:41;;;;;;;27.27;15.82;;;6.90;99.90;;;;;;4953679;28;20035;-73
2021/09/23 04:35:07;;;;;;;27.77;18.02;;;6.90;99.90;;;;;;4951906;28;20024;-73
2021/09/23 04:37:33;;;;;;;28.83;17.15;;;6.90;99.90;;;;;;4953575;28;20405;-72
2021/09/23 04:39:58;;;;;;;27.08;17.70;;;6.80;99.90;;;;;;4963193;28;20081;-72
2021/09/23 04:42:24;;;;;;;43.70;18.65;;;6.80;99.90;;;;;;4971449;28;20031;-72
2021/09/23 04:44:50;;;;;;;32.72;18.10;;;6.80;99.90;;;;;;4971074;28;20035;-72
2021/09/23 04:47:15;;;;;;;29.17;17.40;;;6.80;99.90;;;;;;4972944;28;20034;-72
2021/09/23 04:49:44;;;;;;;28.02;16.38;;;6.70;99.90;;;;;;4972774;28;20063;-72
2021/09/23 04:52:10;;;;;;;27.95;18.13;;;6.80;99.90;;;;;;4972823;28;20023;-72
2021/09/23 04:54:36;;;;;;;25.83;17.42;;;6.80;99.90;;;;;;4972049;28;20038;-73
2021/09/23 04:57:02;;;;;;;31.48;19.20;;;6.90;99.90;;;;;;4972706;28;20082;-72
2021/09/23 04:59:27;;;;;;;25.55;17.20;;;6.80;99.90;;;;;;4972823;28;20082;-72
2021/09/23 05:01:53;;;;;;;27.58;16.40;;;6.80;99.90;;;;;;4972973;28;20026;-72
2021/09/23 05:04:19;;;;;;;27.30;17.40;;;6.80;99.90;;;;;;4981124;28;20059;-74
2021/09/23 05:06:44;;;;;;;23.10;14.32;;;6.80;99.90;;;;;;4981828;28;20054;-73
2021/09/23 05:09:10;;;;;;;36.78;15.50;;;6.60;99.90;;;;;;4969647;28;20030;-74
2021/09/23 05:11:36;;;;;;;34.90;14.32;;;6.60;99.90;;;;;;4957076;28;20035;-74
2021/09/23 05:14:02;;;;;;;30.65;12.68;;;6.50;99.90;;;;;;4953828;28;20541;-72
2021/09/23 05:16:27;;;;;;;20.30;13.73;;;6.50;99.90;;;;;;4952614;29;20506;-72
2021/09/23 05:18:53;;;;;;;22.05;12.32;;;6.60;99.90;;;;;;4951905;28;20027;-79
2021/09/23 05:21:19;;;;;;;18.33;13.43;;;6.60;99.90;;;;;;4976758;28;20026;-80
2021/09/23 05:23:45;;;;;;;20.20;12.63;;;6.70;99.90;;;;;;4976369;28;20528;-79
2021/09/23 05:26:10;;;;;;;22.85;13.98;;;6.70;99.90;;;;;;4979060;28;20031;-80
2021/09/23 05:28:37;;;;;;;23.63;15.10;;;6.80;99.90;;;;;;4979429;28;20035;-79
2021/09/23 05:31:03;;;;;;;25.42;13.57;;;6.80;99.90;;;;;;4978946;28;20031;-80
2021/09/23 05:33:29;;;;;;;23.67;13.55;;;6.60;99.90;;;;;;4974625;28;20049;-80
2021/09/23 05:35:55;;;;;;;24.48;12.80;;;6.50;99.90;;;;;;4977871;28;20027;-79
2021/09/23 05:38:23;;;;;;;41.75;14.18;;;6.40;99.90;;;;;;4978343;28;20023;-79
2021/09/23 05:40:49;;;;;;;18.90;12.68;;;6.40;99.90;;;;;;4979556;28;20547;-79
2021/09/23 05:43:14;;;;;;;21.27;13.60;;;6.30;99.90;;;;;;4978228;28;20105;-79
2021/09/23 05:45:40;;;;;;;28.17;13.23;;;6.50;99.90;;;;;;4979231;28;20039;-79
2021/09/23 05:48:06;;;;;;;45.05;13.65;;;6.30;99.90;;;;;;4978234;28;20031;-80
2021/09/23 05:50:31;;;;;;;26.02;14.13;;;6.30;99.90;;;;;;4976724;28;20392;-79
2021/09/23 05:52:57;;;;;;;27.65;16.17;;;6.40;99.90;;;;;;4977600;28;20089;-78
2021/09/23 05:55:24;;;;;;;26.73;15.65;;;6.60;99.90;;;;;;4976968;28;20086;-80
2021/09/23 05:57:49;;;;;;;27.25;15.35;;;6.60;99.90;;;;;;4977591;28;20057;-81
2021/09/23 06:00:20;;;;;;;21.50;14.23;;;6.60;99.90;;;;;;4977278;28;20039;-80
2021/09/23 06:02:46;;;;;;;22.90;15.20;;;6.70;99.90;;;;;;4976953;28;20038;-80
2021/09/23 06:05:12;;;;;;;23.98;14.77;;;6.80;99.90;;;;;;4975211;28;20019;-80
2021/09/23 06:07:38;;;;;;;18.83;13.18;;;6.90;99.90;;;;;;4976535;28;20473;-79
2021/09/23 06:10:05;;;;;;;17.70;13.07;;;6.80;99.90;;;;;;4976027;28;20026;-79
2021/09/23 06:12:31;;;;;;;18.50;11.32;;;6.60;99.90;;;;;;4976733;28;20023;-80
2021/09/23 06:14:57;;;;;;;21.75;12.05;;;6.50;99.90;;;;;;4975902;28;20050;-80
2021/09/23 06:17:23;;;;;;;16.67;11.65;;;6.50;99.90;;;;;;4984382;28;20027;-78
2021/09/23 06:19:48;;;;;;;16.48;12.00;;;6.40;99.90;;;;;;4986747;28;20568;-78
2021/09/23 06:22:14;;;;;;;17.55;11.45;;;6.30;99.90;;;;;;4984559;28;20031;-79
2021/09/23 06:24:40;;;;;;;16.67;12.07;;;6.10;99.90;;;;;;4984141;28;20078;-79
2021/09/23 06:27:07;;;;;;;14.95;11.88;;;6.10;99.90;;;;;;4981635;28;20031;-78
2021/09/23 06:29:33;;;;;;;19.35;12.30;;;6.10;99.90;;;;;;4976202;28;20374;-79
2021/09/23 06:31:59;;;;;;;20.40;13.77;;;6.20;99.90;;;;;;4974757;28;20082;-79
2021/09/23 06:34:24;;;;;;;17.33;11.85;;;6.20;99.90;;;;;;4976605;28;20042;-80
2021/09/23 06:36:50;;;;;;;15.73;11.38;;;6.20;99.90;;;;;;4976013;28;20031;-79
2021/09/23 06:39:16;;;;;;;16.55;10.82;;;6.30;99.90;;;;;;4976299;28;20035;-80
2021/09/23 06:41:42;;;;;;;15.60;10.77;;;6.40;99.90;;;;;;4972734;28;20023;-80
2021/09/23 06:44:08;;;;;;;14.98;11.20;;;6.50;99.90;;;;;;4975951;28;20038;-80
2021/09/23 06:46:34;;;;;;;14.30;10.82;;;6.70;99.90;;;;;;4970548;28;20071;-80
2021/09/23 06:49:00;;;;;;;12.40;9.65;;;6.90;99.90;;;;;;4956894;28;20051;-80
2021/09/23 06:51:26;;;;;;;12.95;10.57;;;7.00;99.90;;;;;;4957269;28;20252;-80
2021/09/23 06:53:51;;;;;;;18.52;11.45;;;7.20;99.90;;;;;;4958245;28;20082;-78
2021/09/23 06:56:17;;;;;;;16.15;11.90;;;7.30;99.90;;;;;;4953604;28;20042;-72
2021/09/23 06:58:43;;;;;;;13.65;10.02;;;7.50;99.90;;;;;;4955393;28;20058;-73
2021/09/23 07:01:09;;;;;;;15.07;10.55;;;7.50;99.90;;;;;;4955453;28;20393;-74
2021/09/23 07:03:35;;;;;;;13.70;10.07;;;7.50;99.90;;;;;;4955126;29;20130;-73
2021/09/23 07:06:00;;;;;;;12.25;9.52;;;7.50;99.90;;;;;;4954617;28;20502;-73
2021/09/23 07:08:26;;;;;;;14.55;9.95;;;7.60;99.90;;;;;;4954957;28;20115;-74
2021/09/23 07:10:52;;;;;;;12.55;9.85;;;7.70;99.90;;;;;;4971798;28;20065;-73
2021/09/23 07:13:18;;;;;;;15.55;10.20;;;7.80;99.90;;;;;;4974617;28;20477;-75
2021/09/23 07:15:44;;;;;;;10.65;8.95;;;7.90;99.90;;;;;;4973873;28;20482;-74
2021/09/23 07:18:10;;;;;;;12.85;10.32;;;7.90;99.90;;;;;;4974366;28;20023;-73
2021/09/23 07:20:36;;;;;;;11.88;9.75;;;7.90;99.90;;;;;;4974363;28;20045;-72
2021/09/23 07:23:02;;;;;;;17.33;10.45;;;8.00;99.90;;;;;;4973947;28;20493;-74
2021/09/23 07:25:29;;;;;;;11.07;9.57;;;8.10;99.90;;;;;;4973339;28;20023;-73
2021/09/23 07:27:55;;;;;;;10.85;9.43;;;8.20;99.90;;;;;;4974039;28;20125;-73
2021/09/23 07:30:22;;;;;;;11.85;9.73;;;8.40;99.90;;;;;;4974059;28;20494;-75
2021/09/23 07:32:48;;;;;;;11.20;9.18;;;8.50;99.90;;;;;;4972786;28;20034;-74
2021/09/23 07:35:14;;;;;;;11.98;9.50;;;8.70;99.90;;;;;;4973092;28;20031;-73
2021/09/23 07:37:40;;;;;;;11.07;8.85;;;8.80;99.90;;;;;;4973597;28;20151;-74
2021/09/23 07:40:09;;;;;;;10.90;8.73;;;8.90;99.90;;;;;;4973813;28;20058;-74
2021/09/23 07:42:35;;;;;;;10.85;8.90;;;9.10;99.90;;;;;;4973106;28;20027;-75
2021/09/23 07:45:01;;;;;;;9.18;7.80;;;9.20;99.90;;;;;;4972406;28;20370;-75
2021/09/23 07:47:27;;;;;;;12.00;8.40;;;9.40;99.90;;;;;;4972527;28;20025;-74
2021/09/23 07:49:52;;;;;;;10.45;8.40;;;9.60;99.90;;;;;;4972442;28;20026;-74
2021/09/23 07:52:18;;;;;;;9.18;7.68;;;9.90;99.90;;;;;;4971999;28;20026;-74
2021/09/23 07:54:44;;;;;;;9.95;7.78;;;10.20;99.90;;;;;;4971835;28;20093;-74
2021/09/23 07:57:11;;;;;;;12.15;8.02;;;10.50;99.90;;;;;;4970869;28;20489;-75
2021/09/23 07:59:37;;;;;;;9.48;7.57;;;10.70;99.90;;;;;;4972566;28;20093;-73
2021/09/23 08:02:03;;;;;;;9.15;7.10;;;10.70;99.90;;;;;;4973445;28;20484;-73
2021/09/23 08:04:29;;;;;;;8.45;7.13;;;10.80;99.90;;;;;;4972935;28;20098;-72
2021/09/23 08:06:54;;;;;;;8.65;6.72;;;11.00;99.90;;;;;;4971966;28;20031;-72
2021/09/23 08:09:20;;;;;;;9.63;6.40;;;11.30;99.90;;;;;;4973431;28;20035;-72
2021/09/23 08:11:47;;;;;;;7.55;6.15;;;11.40;99.90;;;;;;4972161;28;20497;-73
2021/09/23 08:14:13;;;;;;;7.88;6.53;;;11.60;99.90;;;;;;4985491;28;20050;-76
2021/09/23 08:16:39;;;;;;;7.32;6.10;;;12.00;99.90;;;;;;4978156;28;20145;-74
2021/09/23 08:19:05;;;;;;;8.00;5.93;;;12.20;99.90;;;;;;4973133;28;20026;-73
2021/09/23 08:21:30;;;;;;;6.07;5.45;;;12.90;99.90;;;;;;4973124;28;20030;-73
2021/09/23 08:23:56;;;;;;;7.75;5.45;;;13.80;99.90;;;;;;4973759;28;20027;-72
2021/09/23 08:26:23;;;;;;;9.32;5.38;;;14.50;99.90;;;;;;4988368;23;20544;-70
2021/09/23 08:28:50;;;;;;;5.22;4.75;;;15.80;99.90;;;;;;4980685;28;20059;-70
2021/09/23 08:31:18;;;;;;;6.38;4.47;;;15.50;99.90;;;;;;4975465;28;20050;-69
2021/09/23 08:33:43;;;;;;;5.63;4.25;;;15.80;99.90;;;;;;4974015;28;20125;-71
2021/09/23 08:36:10;;;;;;;8.23;4.05;;;15.90;99.90;;;;;;4980701;28;20471;-69
2021/09/23 08:38:36;;;;;;;6.70;4.95;;;16.70;99.90;;;;;;4993308;28;20022;-70
2021/09/23 08:41:02;;;;;;;9.55;4.47;;;17.10;99.90;;;;;;4991208;28;20065;-69
2021/09/23 08:43:29;;;;;;;4.43;4.03;;;17.30;99.90;;;;;;4992127;28;20101;-70
2021/09/23 08:45:55;;;;;;;5.35;3.72;;;17.90;99.90;;;;;;4992980;28;20022;-69
2021/09/23 08:48:22;;;;;;;4.72;4.28;;;17.50;99.90;;;;;;4992889;28;20034;-69
2021/09/23 08:50:48;;;;;;;8.52;4.93;;;17.70;99.90;;;;;;4992965;28;20031;-69
2021/09/23 08:53:14;;;;;;;6.00;4.93;;;17.80;99.90;;;;;;4992657;28;20089;-68
2021/09/23 08:55:40;;;;;;;7.90;5.32;;;17.20;99.90;;;;;;4994402;28;20452;-70
2021/09/23 08:58:07;;;;;;;6.45;5.50;;;16.80;99.90;;;;;;4995574;28;20022;-71
2021/09/23 09:00:57;;;;;;;7.35;4.95;;;17.00;99.90;;;;;;4997610;28;20101;-70
2021/09/23 09:03:25;;;;;;;9.63;4.72;;;17.80;99.90;;;;;;4997391;28;20045;-70
2021/09/23 09:05:53;;;;;;;5.03;4.53;;;18.40;99.90;;;;;;4996456;28;20128;-69
2021/09/23 09:08:21;;;;;;;5.45;4.20;;;17.80;99.90;;;;;;4996776;28;20050;-70
2021/09/23 09:10:47;;;;;;;5.95;4.43;;;17.90;99.90;;;;;;4996863;28;20559;-69
2021/09/23 09:13:12;;;;;;;5.43;3.92;;;17.60;99.90;;;;;;4996401;28;20026;-68
2021/09/23 09:15:45;;;;;;;6.63;4.30;;;17.90;99.90;;;;;;4995481;28;20106;-69
2021/09/23 09:18:19;;;;;;;6.15;3.88;;;18.80;99.90;;;;;;4996252;28;20504;-69
2021/09/23 09:21:03;;;;;;;7.32;3.90;;;19.50;99.90;;;;;;4996605;28;20483;-69
2021/09/23 09:23:46;;;;;;;7.00;3.67;;;20.30;99.90;;;;;;4996946;28;20053;-70
2021/09/23 09:26:22;;;;;;;3.63;3.22;;;21.10;99.90;;;;;;4995944;28;20026;-70
2021/09/23 09:29:01;;;;;;;3.10;2.80;;;20.60;99.90;;;;;;4996100;28;20034;-69
2021/09/23 09:31:28;;;;;;;5.45;3.05;;;20.70;99.90;;;;;;4994854;28;20038;-70
2021/09/23 09:33:59;;;;;;;5.78;2.92;;;22.50;99.90;;;;;;4996103;28;20026;-69
2021/09/23 09:36:40;;;;;;;4.95;3.10;;;23.40;99.90;;;;;;4994820;28;20041;-70
2021/09/23 09:39:13;;;;;;;5.45;3.25;;;21.60;99.90;;;;;;4995903;28;20026;-70
2021/09/23 09:41:44;;;;;;;7.47;3.10;;;21.00;99.90;;;;;;4994358;28;20504;-70
2021/09/23 09:44:12;;;;;;;5.88;3.10;;;20.80;99.90;;;;;;4995855;28;20424;-69
2021/09/23 09:46:49;;;;;;;3.55;2.65;;;21.00;99.90;;;;;;4994808;28;20065;-69
2021/09/23 09:49:15;;;;;;;3.95;2.85;;;21.50;99.90;;;;;;4995495;28;20034;-70
2021/09/23 09:51:49;;;;;;;4.47;2.40;;;21.50;99.90;;;;;;4995752;28;20023;-70
2021/09/23 09:54:16;;;;;;;5.40;2.50;;;21.20;99.90;;;;;;4995049;28;20085;-70
2021/09/23 09:56:46;;;;;;;2.72;2.50;;;21.10;99.90;;;;;;4995103;28;20022;-69
2021/09/23 09:59:15;;;;;;;10.10;2.50;;;21.90;99.90;;;;;;4994157;28;20029;-70
2021/09/23 10:01:44;;;;;;;9.65;2.67;;;22.50;99.40;;;;;;4995335;28;20045;-69
2021/09/23 10:04:11;;;;;;;5.15;2.53;;;23.90;97.90;;;;;;4995420;28;20782;-69
2021/09/23 10:06:39;;;;;;;4.03;2.60;;;23.20;97.30;;;;;;4993265;28;20069;-70
2021/09/23 10:09:06;;;;;;;5.72;2.53;;;21.70;98.50;;;;;;4994991;28;20033;-71
2021/09/23 10:11:32;;;;;;;2.13;1.98;;;21.90;99.90;;;;;;4995354;28;20108;-70
2021/09/23 10:13:58;;;;;;;3.20;1.83;;;23.20;97.10;;;;;;4992782;28;20058;-70
2021/09/23 10:16:24;;;;;;;2.40;1.95;;;24.40;95.50;;;;;;4992871;28;20105;-70
2021/09/23 10:18:51;;;;;;;3.92;2.08;;;24.00;95.60;;;;;;4995431;28;20153;-70
2021/09/23 10:21:17;;;;;;;2.20;2.00;;;25.70;93.30;;;;;;4995330;28;20030;-70
2021/09/23 10:23:43;;;;;;;2.92;2.15;;;25.20;94.20;;;;;;4995368;28;20022;-70
2021/09/23 10:26:12;;;;;;;3.40;1.90;;;24.80;92.40;;;;;;4995489;28;20023;-72
2021/09/23 10:28:45;;;;;;;2.75;2.17;;;23.90;95.10;;;;;;4995050;28;20125;-69
2021/09/23 10:31:11;;;;;;;2.20;1.92;;;24.70;93.70;;;;;;4995288;28;20038;-70
2021/09/23 10:33:41;;;;;;;5.38;1.90;;;25.30;93.10;;;;;;4993865;28;20109;-70
2021/09/23 10:36:08;;;;;;;3.22;2.25;;;25.30;92.60;;;;;;4994149;28;20034;-70
2021/09/23 10:38:34;;;;;;;4.28;1.95;;;24.90;92.40;;;;;;4994058;28;20500;-69
2021/09/23 10:41:01;;;;;;;3.22;2.70;;;23.50;93.70;;;;;;4994988;28;20022;-69
2021/09/23 10:43:27;;;;;;;2.53;2.08;;;24.20;93.80;;;;;;4994311;28;20057;-69
2021/09/23 10:45:54;;;;;;;2.85;2.28;;;25.10;92.20;;;;;;4994032;28;20022;-70
2021/09/23 10:48:21;;;;;;;3.50;1.83;;;25.50;91.50;;;;;;4985175;28;20029;-72
2021/09/23 10:50:48;;;;;;;5.30;1.73;;;25.50;92.00;;;;;;4993191;28;20073;-73
2021/09/23 10:53:14;;;;;;;1.65;1.55;;;27.50;90.10;;;;;;4994322;28;20484;-73
2021/09/23 10:55:42;;;;;;;2.28;2.08;;;28.50;85.10;;;;;;4993473;28;20109;-74
2021/09/23 10:58:10;;;;;;;2.33;2.03;;;29.20;83.50;;;;;;4993552;28;20019;-75
2021/09/23 11:00:37;;;;;;;1.80;1.70;;;29.10;80.70;;;;;;4993933;28;20037;-76
2021/09/23 11:03:05;;;;;;;1.90;1.80;;;28.30;82.40;;;;;;4994724;28;20037;-75
2021/09/23 11:05:31;;;;;;;2.35;1.70;;;29.40;83.00;;;;;;4993265;28;20019;-76
2021/09/23 11:08:00;;;;;;;2.33;1.83;;;28.40;81.20;;;;;;4993310;28;20050;-77
2021/09/23 11:10:26;;;;;;;3.63;1.88;;;28.10;80.20;;;;;;4994814;28;20026;-76
2021/09/23 11:12:57;;;;;;;2.25;1.73;;;27.40;81.90;;;;;;4996833;28;20026;-76
2021/09/23 11:15:26;;;;;;;2.45;2.00;;;28.10;83.40;;;;;;4998895;28;20023;-75
2021/09/23 11:17:54;;;;;;;2.28;1.65;;;26.80;84.10;;;;;;4999190;28;20082;-76
2021/09/23 11:20:23;;;;;;;4.10;1.70;;;27.60;83.30;;;;;;5003444;28;20011;-77
2021/09/23 11:22:53;;;;;;;1.70;1.60;;;29.20;82.30;;;;;;5001800;28;20038;-76
2021/09/23 11:25:28;;;;;;;2.38;1.70;;;30.10;76.10;;;;;;4995934;28;20501;-74
2021/09/23 11:27:55;;;;;;;1.60;1.50;;;30.20;73.80;;;;;;4996665;28;20034;-75
2021/09/23 11:30:24;;;;;;;3.05;1.55;;;29.00;74.50;;;;;;5000395;28;20033;-75
2021/09/23 11:32:58;;;;;;;2.80;1.50;;;29.60;75.60;;;;;;4996609;28;20117;-75
2021/09/23 11:35:29;;;;;;;3.15;1.30;;;29.80;75.40;;;;;;4992273;28;20029;-76
2021/09/23 11:37:56;;;;;;;19.63;2.38;;;30.60;74.60;;;;;;4992399;28;20026;-76
2021/09/23 11:40:32;;;;;;;1.30;1.20;;;30.80;69.80;;;;;;4990657;28;20026;-76
2021/09/23 11:43:00;;;;;;;3.78;1.50;;;31.00;71.40;;;;;;4989985;28;20024;-78
2021/09/23 11:45:29;;;;;;;2.50;1.70;;;28.60;72.50;;;;;;4991071;28;20420;-77
2021/09/23 11:47:57;;;;;;;1.48;1.38;;;28.00;74.40;;;;;;4991588;28;20025;-77
2021/09/23 11:50:33;;;;;;;2.35;1.63;;;27.10;77.00;;;;;;4991389;28;20092;-75
2021/09/23 11:53:09;;;;;;;3.75;1.40;;;28.40;77.70;;;;;;4988912;28;20046;-77
2021/09/23 11:55:41;;;;;;;1.38;1.23;;;29.30;74.70;;;;;;4988838;28;20500;-77
2021/09/23 11:58:14;;;;;;;2.60;1.70;;;29.20;71.80;;;;;;4990971;28;20563;-77
2021/09/23 12:00:42;;;;;;;2.00;1.65;;;26.80;75.20;;;;;;4991585;28;20354;-77
2021/09/23 12:03:09;;;;;;;4.00;1.52;;;26.60;77.40;;;;;;4990900;28;20029;-76
2021/09/23 12:05:35;;;;;;;1.58;1.48;;;26.00;82.40;;;;;;4990921;28;20022;-76
2021/09/23 12:08:19;;;;;;;2.13;1.92;;;26.80;76.60;;;;;;4991452;28;20018;-75
2021/09/23 12:11:01;;;;;;;4.13;1.67;;;26.30;76.70;;;;;;4989807;28;20030;-75
2021/09/23 12:13:35;;;;;;;;;;;27.30;78.00;;;;;;4990388;28;20030;-75
2021/09/23 12:16:09;;;;;;;2.80;1.40;;;26.90;76.60;;;;;;4989074;28;19906;-75
2021/09/23 12:18:35;;;;;;;5.55;1.52;;;27.50;75.10;;;;;;4988665;28;20508;-75
2021/09/23 12:21:06;;;;;;;4.10;1.58;;;28.10;73.80;;;;;;4991033;28;20062;-73
2021/09/23 12:23:35;;;;;;;3.42;1.70;;;27.70;73.20;;;;;;4991333;28;20018;-73
2021/09/23 12:26:16;;;;;;;2.90;1.55;;;28.50;74.20;;;;;;4990465;28;20169;-74
2021/09/23 12:28:55;;;;;;;2.83;1.77;;;29.00;73.50;;;;;;4990305;28;20065;-77
2021/09/23 12:31:34;;;;;;;1.88;1.67;;;29.80;71.90;;;;;;4989236;28;20096;-77
2021/09/23 12:34:04;;;;;;;3.72;1.80;;;28.60;68.90;;;;;;4987877;28;20481;-76
2021/09/23 12:37:10;;;;;;;2.20;1.80;;;28.20;73.10;;;;;;4990007;28;20392;-74
2021/09/23 12:39:42;;;;;;;3.22;1.70;;;28.50;72.00;;;;;;4959699;28;20642;-73
2021/09/23 12:42:17;;;;;;;2.88;1.60;;;28.20;70.90;;;;;;4987639;28;20400;-78